Time,TemperatureF,DewpointF,PressureIn,WindDirection,WindDirectionDegrees,WindSpeedMPH,WindSpeedGustMPH,Humidity,HourlyPrecipIn,Conditions,Clouds,dailyrainin,SoftwareType,DateUTC
2013-09-10 00:01:00,75.3,52.0,29.21,East,98,1.0,2.5,46,-99.99,,,-99.99,WSDL version 426,2013-09-10 05:01:00,
2013-09-10 00:06:00,75.7,53.3,29.21,ESE,115,0.0,2.5,45,-99.99,,,-99.99,WSDL version 426,2013-09-10 05:06:00,
2013-09-10 00:11:00,75.6,52.4,29.21,West,270,0.0,1.1,44,-99.99,,,-99.99,WSDL version 426,2013-09-10 05:11:00,
2013-09-10 00:16:00,75.2,51.8,29.21,West,270,0.0,0.0,44,-99.99,,,-99.99,WSDL version 426,2013-09-10 05:16:00,
2013-09-10 00:21:00,74.8,51.5,29.21,WSW,244,0.0,0.0,44,-99.99,,,-99.99,WSDL version 426,2013-09-10 05:21:00,
2013-09-10 00:26:00,75.0,52.8,29.21,SSW,198,0.4,1.6,45,-99.99,,,-99.99,WSDL version 426,2013-09-10 05:26:00,
2013-09-10 00:31:00,75.2,52.3,29.21,SE,138,0.5,2.2,45,-99.99,,,-99.99,WSDL version 426,2013-09-10 05:31:00,
2013-09-10 00:36:00,74.7,52.0,29.21,SE,135,0.6,2.2,45,-99.99,,,-99.99,WSDL version 426,2013-09-10 05:36:00,
2013-09-10 00:41:00,74.4,51.7,29.21,SSE,158,0.2,2.5,45,-99.99,,,-99.99,WSDL version 426,2013-09-10 05:41:00,
2013-09-10 00:46:00,74.3,52.7,29.21,South,186,1.0,2.5,48,-99.99,,,-99.99,WSDL version 426,2013-09-10 05:46:00,
2013-09-10 00:51:00,74.8,53.7,29.21,SE,145,0.8,1.6,47,-99.99,,,-99.99,WSDL version 426,2013-09-10 05:51:00,
2013-09-10 00:56:00,74.6,52.6,29.21,ESE,119,1.6,2.5,46,-99.99,,,-99.99,WSDL version 426,2013-09-10 05:56:00,
2013-09-10 01:01:00,74.0,51.9,29.21,SSE,158,1.3,2.9,46,-99.99,,,-99.99,WSDL version 426,2013-09-10 06:01:00,
2013-09-10 01:06:00,73.8,52.2,29.21,South,183,0.4,2.9,48,-99.99,,,-99.99,WSDL version 426,2013-09-10 06:06:00,
2013-09-10 01:11:00,74.3,53.3,29.21,South,174,1.6,2.5,48,-99.99,,,-99.99,WSDL version 426,2013-09-10 06:11:00,
2013-09-10 01:16:00,74.3,52.9,29.21,South,174,0.0,2.5,47,-99.99,,,-99.99,WSDL version 426,2013-09-10 06:16:00,
2013-09-10 01:21:00,73.8,52.3,29.21,SSE,160,1.4,2.7,47,-99.99,,,-99.99,WSDL version 426,2013-09-10 06:21:00,
2013-09-10 01:26:00,73.5,52.0,29.21,SSE,158,1.2,2.7,47,-99.99,,,-99.99,WSDL version 426,2013-09-10 06:26:00,
2013-09-10 01:31:00,73.3,52.9,29.21,SE,133,1.4,2.2,50,-99.99,,,-99.99,WSDL version 426,2013-09-10 06:31:00,
2013-09-10 01:36:00,74.0,53.7,29.21,SSE,155,0.1,2.0,48,-99.99,,,-99.99,WSDL version 426,2013-09-10 06:36:00,
2013-09-10 01:41:00,74.1,52.9,29.21,SE,135,1.3,1.6,47,-99.99,,,-99.99,WSDL version 426,2013-09-10 06:41:00,
2013-09-10 01:46:00,73.5,52.1,29.21,SE,135,1.3,2.0,47,-99.99,,,-99.99,WSDL version 426,2013-09-10 06:46:00,
2013-09-10 01:51:00,73.1,52.3,29.21,SE,138,1.1,2.0,48,-99.99,,,-99.99,WSDL version 426,2013-09-10 06:51:00,
2013-09-10 01:56:00,73.0,52.7,29.21,SSE,149,1.3,2.5,51,-99.99,,,-99.99,WSDL version 426,2013-09-10 06:56:00,
2013-09-10 02:01:00,73.6,53.9,29.21,SSE,149,1.3,2.5,50,-99.99,,,-99.99,WSDL version 426,2013-09-10 07:01:00,
2013-09-10 02:06:00,73.8,53.5,29.21,ESE,113,0.2,2.2,49,-99.99,,,-99.99,WSDL version 426,2013-09-10 07:06:00,
2013-09-10 02:11:00,73.3,52.8,29.21,ESE,113,0.0,1.6,49,-99.99,,,-99.99,WSDL version 426,2013-09-10 07:11:00,
2013-09-10 02:16:00,72.9,52.6,29.23,SE,135,0.8,1.6,49,-99.99,,,-99.99,WSDL version 426,2013-09-10 07:16:00,
2013-09-10 02:21:00,72.7,52.5,29.23,SE,125,0.0,1.6,50,-99.99,,,-99.99,WSDL version 426,2013-09-10 07:21:00,
2013-09-10 02:26:00,73.1,53.8,29.23,ESE,113,0.6,2.2,50,-99.99,,,-99.99,WSDL version 426,2013-09-10 07:26:00,
2013-09-10 02:31:00,73.3,53.5,29.23,ESE,113,2.1,2.5,49,-99.99,,,-99.99,WSDL version 426,2013-09-10 07:31:00,
2013-09-10 02:36:00,72.8,52.5,29.23,ESE,113,1.6,2.5,49,-99.99,,,-99.99,WSDL version 426,2013-09-10 07:36:00,
2013-09-10 02:41:00,72.3,52.1,29.23,ESE,113,2.5,2.7,49,-99.99,,,-99.99,WSDL version 426,2013-09-10 07:41:00,
2013-09-10 02:46:00,72.0,51.9,29.21,ESE,118,2.0,3.1,50,-99.99,,,-99.99,WSDL version 426,2013-09-10 07:46:00,
2013-09-10 02:51:00,72.2,53.3,29.21,SE,141,1.7,3.1,52,-99.99,,,-99.99,WSDL version 426,2013-09-10 07:51:00,
2013-09-10 02:56:00,73.0,53.7,29.21,SSE,152,1.4,2.7,50,-99.99,,,-99.99,WSDL version 426,2013-09-10 07:56:00,
2013-09-10 03:01:00,72.8,53.1,29.23,SSE,152,1.2,2.7,50,-99.99,,,-99.99,WSDL version 426,2013-09-10 08:01:00,
2013-09-10 03:06:00,72.4,52.5,29.23,SE,135,1.3,2.7,50,-99.99,,,-99.99,WSDL version 426,2013-09-10 08:06:00,
2013-09-10 03:11:00,72.0,52.3,29.23,SE,135,2.2,2.7,50,-99.99,,,-99.99,WSDL version 426,2013-09-10 08:11:00,
2013-09-10 03:16:00,71.8,53.0,29.23,ESE,118,2.2,2.9,53,-99.99,,,-99.99,WSDL version 426,2013-09-10 08:16:00,
2013-09-10 03:21:00,72.5,54.0,29.23,SE,140,1.9,2.9,51,-99.99,,,-99.99,WSDL version 426,2013-09-10 08:21:00,
2013-09-10 03:26:00,72.5,53.4,29.23,SSE,152,2.2,3.4,51,-99.99,,,-99.99,WSDL version 426,2013-09-10 08:26:00,
2013-09-10 03:31:00,72.0,52.6,29.23,SE,127,2.4,3.4,51,-99.99,,,-99.99,WSDL version 426,2013-09-10 08:31:00,
2013-09-10 03:36:00,71.8,52.8,29.23,SSE,158,1.9,3.6,51,-99.99,,,-99.99,WSDL version 426,2013-09-10 08:36:00,
2013-09-10 03:41:00,71.8,52.8,29.23,SE,133,1.8,3.6,52,-99.99,,,-99.99,WSDL version 426,2013-09-10 08:41:00,
2013-09-10 03:46:00,72.2,54.2,29.23,SSE,150,1.9,3.1,53,-99.99,,,-99.99,WSDL version 426,2013-09-10 08:46:00,
2013-09-10 03:51:00,72.8,53.9,29.23,SSE,148,1.6,3.4,51,-99.99,,,-99.99,WSDL version 426,2013-09-10 08:51:00,
2013-09-10 03:56:00,72.3,53.1,29.23,SE,141,1.6,3.4,51,-99.99,,,-99.99,WSDL version 426,2013-09-10 08:56:00,
2013-09-10 04:01:00,71.9,52.7,29.23,SE,132,1.5,2.9,51,-99.99,,,-99.99,WSDL version 426,2013-09-10 09:01:00,
2013-09-10 04:06:00,71.6,52.6,29.23,SE,135,1.9,2.7,52,-99.99,,,-99.99,WSDL version 426,2013-09-10 09:06:00,
2013-09-10 04:11:00,71.4,53.0,29.23,SE,135,1.5,3.1,53,-99.99,,,-99.99,WSDL version 426,2013-09-10 09:11:00,
2013-09-10 04:16:00,71.8,54.3,29.23,South,170,1.4,3.1,54,-99.99,,,-99.99,WSDL version 426,2013-09-10 09:16:00,
2013-09-10 04:21:00,72.3,54.2,29.23,SE,135,1.4,2.7,52,-99.99,,,-99.99,WSDL version 426,2013-09-10 09:21:00,
2013-09-10 04:26:00,71.9,53.3,29.23,SSE,158,1.2,2.5,52,-99.99,,,-99.99,WSDL version 426,2013-09-10 09:26:00,
2013-09-10 04:31:00,71.5,53.0,29.23,South,173,1.7,2.9,52,-99.99,,,-99.99,WSDL version 426,2013-09-10 09:31:00,
2013-09-10 04:36:00,71.4,53.3,29.23,SSE,166,2.0,3.1,53,-99.99,,,-99.99,WSDL version 426,2013-09-10 09:36:00,
2013-09-10 04:41:00,71.2,53.2,29.23,SE,146,2.1,3.4,53,-99.99,,,-99.99,WSDL version 426,2013-09-10 09:41:00,
2013-09-10 04:46:00,71.3,54.0,29.23,SSE,167,1.9,3.4,55,-99.99,,,-99.99,WSDL version 426,2013-09-10 09:46:00,
2013-09-10 04:51:00,72.1,54.3,29.23,SE,135,1.9,3.1,53,-99.99,,,-99.99,WSDL version 426,2013-09-10 09:51:00,
2013-09-10 04:56:00,72.1,53.6,29.23,SE,141,2.1,3.1,52,-99.99,,,-99.99,WSDL version 426,2013-09-10 09:56:00,
2013-09-10 05:01:00,71.8,53.2,29.23,SSE,149,1.8,3.6,52,-99.99,,,-99.99,WSDL version 426,2013-09-10 10:01:00,
2013-09-10 05:06:00,71.6,53.1,29.23,SSE,160,1.8,3.8,52,-99.99,,,-99.99,WSDL version 426,2013-09-10 10:06:00,
2013-09-10 05:11:00,71.8,53.2,29.23,SE,139,2.7,4.9,52,-99.99,,,-99.99,WSDL version 426,2013-09-10 10:11:00,
2013-09-10 05:16:00,71.7,53.2,29.23,SSE,153,2.6,4.9,52,-99.99,,,-99.99,WSDL version 426,2013-09-10 10:16:00,
2013-09-10 05:21:00,71.9,53.5,29.23,SSE,160,3.0,4.7,53,-99.99,,,-99.99,WSDL version 426,2013-09-10 10:21:00,
2013-09-10 05:26:00,72.5,53.7,29.23,SSE,160,2.5,4.3,51,-99.99,,,-99.99,WSDL version 426,2013-09-10 10:26:00,
2013-09-10 05:31:00,72.6,53.4,29.21,SSE,163,3.0,4.7,51,-99.99,,,-99.99,WSDL version 426,2013-09-10 10:31:00,
2013-09-10 05:36:00,72.4,53.1,29.21,SSE,149,2.4,4.7,51,-99.99,,,-99.99,WSDL version 426,2013-09-10 10:36:00,
2013-09-10 05:41:00,72.1,52.9,29.21,SE,138,2.7,4.7,51,-99.99,,,-99.99,WSDL version 426,2013-09-10 10:41:00,
2013-09-10 05:46:00,72.0,52.8,29.23,SSE,148,2.9,4.3,51,-99.99,,,-99.99,WSDL version 426,2013-09-10 10:46:00,
2013-09-10 05:51:00,71.8,52.8,29.23,SSE,160,3.3,4.3,51,-99.99,,,-99.99,WSDL version 426,2013-09-10 10:51:00,
2013-09-10 05:56:00,71.8,53.0,29.23,SSE,166,3.2,5.4,52,-99.99,,,-99.99,WSDL version 426,2013-09-10 10:56:00,
2013-09-10 06:01:00,71.8,53.2,29.23,SSE,158,3.0,6.3,52,-99.99,,,-99.99,WSDL version 426,2013-09-10 11:01:00,
2013-09-10 06:06:00,71.7,53.3,29.23,SSE,165,3.7,6.3,52,-99.99,,,-99.99,WSDL version 426,2013-09-10 11:06:00,
2013-09-10 06:11:00,71.6,53.1,29.23,SE,135,3.0,5.6,52,-99.99,,,-99.99,WSDL version 426,2013-09-10 11:11:00,
2013-09-10 06:16:00,71.5,53.2,29.23,SSE,158,2.3,5.6,53,-99.99,,,-99.99,WSDL version 426,2013-09-10 11:16:00,
2013-09-10 06:21:00,71.4,53.4,29.23,SSE,148,1.9,4.9,53,-99.99,,,-99.99,WSDL version 426,2013-09-10 11:21:00,
2013-09-10 06:26:00,71.2,53.3,29.23,SSE,148,2.2,4.0,53,-99.99,,,-99.99,WSDL version 426,2013-09-10 11:26:00,
2013-09-10 06:31:00,71.1,53.4,29.23,SSE,151,3.1,4.7,54,-99.99,,,-99.99,WSDL version 426,2013-09-10 11:31:00,
2013-09-10 06:36:00,71.1,53.6,29.23,SE,138,2.4,4.9,54,-99.99,,,-99.99,WSDL version 426,2013-09-10 11:36:00,
2013-09-10 06:41:00,71.1,53.6,29.23,South,173,2.4,4.9,54,-99.99,,,-99.99,WSDL version 426,2013-09-10 11:41:00,
2013-09-10 06:46:00,71.1,53.6,29.26,SE,141,2.8,3.8,54,-99.99,,,-99.99,WSDL version 426,2013-09-10 11:46:00,
2013-09-10 06:51:00,71.0,53.6,29.26,SSE,155,1.5,3.8,54,-99.99,,,-99.99,WSDL version 426,2013-09-10 11:51:00,
2013-09-10 06:56:00,70.9,53.7,29.26,SSE,155,2.8,4.3,55,-99.99,,,-99.99,WSDL version 426,2013-09-10 11:56:00,
2013-09-10 07:01:00,71.1,53.8,29.26,SE,143,2.5,4.3,55,-99.99,,,-99.99,WSDL version 426,2013-09-10 12:01:00,
2013-09-10 07:06:00,71.1,54.1,29.26,SSE,166,1.9,4.0,55,-99.99,,,-99.99,WSDL version 426,2013-09-10 12:06:00,
2013-09-10 07:11:00,71.1,53.9,29.26,South,170,1.4,4.0,54,-99.99,,,-99.99,WSDL version 426,2013-09-10 12:11:00,
2013-09-10 07:16:00,71.2,53.8,29.26,SSE,163,2.3,3.6,54,-99.99,,,-99.99,WSDL version 426,2013-09-10 12:16:00,
2013-09-10 07:21:00,71.3,54.1,29.26,South,174,2.5,4.5,55,-99.99,,,-99.99,WSDL version 426,2013-09-10 12:21:00,
2013-09-10 07:26:00,71.5,54.2,29.26,South,169,2.2,4.5,54,-99.99,,,-99.99,WSDL version 426,2013-09-10 12:26:00,
2013-09-10 07:31:00,71.8,54.2,29.26,SE,146,2.3,3.6,53,-99.99,,,-99.99,WSDL version 426,2013-09-10 12:31:00,
2013-09-10 07:36:00,72.0,54.3,29.26,SSE,161,2.5,3.6,54,-99.99,,,-99.99,WSDL version 426,2013-09-10 12:36:00,
2013-09-10 07:41:00,72.3,54.7,29.26,SE,140,3.0,5.6,54,-99.99,,,-99.99,WSDL version 426,2013-09-10 12:41:00,
2013-09-10 07:46:00,72.5,55.0,29.26,SSE,153,3.4,6.5,54,-99.99,,,-99.99,WSDL version 426,2013-09-10 12:46:00,
2013-09-10 07:51:00,72.9,55.2,29.26,South,180,3.3,6.5,53,-99.99,,,-99.99,WSDL version 426,2013-09-10 12:51:00,
2013-09-10 07:56:00,73.2,55.1,29.26,SSE,158,4.6,6.5,53,-99.99,,,-99.99,WSDL version 426,2013-09-10 12:56:00,
2013-09-10 08:01:00,73.4,54.8,29.29,SSE,160,4.5,7.4,52,-99.99,,,-99.99,WSDL version 426,2013-09-10 13:01:00,
2013-09-10 08:06:00,73.6,54.4,29.29,SSE,155,4.1,7.4,51,-99.99,,,-99.99,WSDL version 426,2013-09-10 13:06:00,
2013-09-10 08:11:00,73.6,54.4,29.29,SSE,149,4.4,7.4,51,-99.99,,,-99.99,WSDL version 426,2013-09-10 13:11:00,
2013-09-10 08:16:00,73.6,54.4,29.29,SSE,164,3.9,8.7,51,-99.99,,,-99.99,WSDL version 426,2013-09-10 13:16:00,
2013-09-10 08:21:00,73.8,54.5,29.29,South,170,4.1,8.7,51,-99.99,,,-99.99,WSDL version 426,2013-09-10 13:21:00,
2013-09-10 08:26:00,73.9,54.7,29.29,SSE,160,4.0,8.5,51,-99.99,,,-99.99,WSDL version 426,2013-09-10 13:26:00,
2013-09-10 08:31:00,74.2,54.9,29.29,South,172,4.1,7.6,51,-99.99,,,-99.99,WSDL version 426,2013-09-10 13:31:00,
2013-09-10 08:36:00,74.5,54.9,29.29,South,169,4.2,8.1,51,-99.99,,,-99.99,WSDL version 426,2013-09-10 13:36:00,
2013-09-10 08:41:00,74.8,54.9,29.29,SSE,161,4.3,8.1,50,-99.99,,,-99.99,WSDL version 426,2013-09-10 13:41:00,
2013-09-10 08:46:00,75.1,55.0,29.29,South,180,6.0,8.7,49,-99.99,,,-99.99,WSDL version 426,2013-09-10 13:46:00,
2013-09-10 08:51:00,75.6,55.1,29.29,South,170,5.8,8.7,49,-99.99,,,-99.99,WSDL version 426,2013-09-10 13:51:00,
2013-09-10 08:56:00,76.1,55.2,29.29,South,175,6.0,8.7,48,-99.99,,,-99.99,WSDL version 426,2013-09-10 13:56:00,
2013-09-10 09:01:00,76.7,55.4,29.29,SSE,166,4.9,9.8,47,-99.99,,,-99.99,WSDL version 426,2013-09-10 14:01:00,
2013-09-10 09:06:00,77.3,55.1,29.29,South,169,4.9,9.8,46,-99.99,,,-99.99,WSDL version 426,2013-09-10 14:06:00,
2013-09-10 09:11:00,77.7,54.7,29.29,South,170,6.7,9.8,45,-99.99,,,-99.99,WSDL version 426,2013-09-10 14:11:00,
2013-09-10 09:16:00,78.1,55.1,29.29,South,174,6.0,9.8,45,-99.99,,,-99.99,WSDL version 426,2013-09-10 14:16:00,
2013-09-10 09:21:00,78.7,55.2,29.29,South,190,5.5,9.8,44,-99.99,,,-99.99,WSDL version 426,2013-09-10 14:21:00,
2013-09-10 09:26:00,79.2,55.0,29.29,SSW,197,5.3,9.8,43,-99.99,,,-99.99,WSDL version 426,2013-09-10 14:26:00,
2013-09-10 09:31:00,79.7,55.0,29.29,SSW,194,5.6,8.5,42,-99.99,,,-99.99,WSDL version 426,2013-09-10 14:31:00,
2013-09-10 09:36:00,80.2,55.0,29.29,SSE,153,5.7,9.8,42,-99.99,,,-99.99,WSDL version 426,2013-09-10 14:36:00,
2013-09-10 09:41:00,80.6,55.1,29.29,South,172,5.7,9.8,41,-99.99,,,-99.99,WSDL version 426,2013-09-10 14:41:00,
2013-09-10 09:46:00,81.1,55.2,29.32,South,177,3.8,8.5,41,-99.99,,,-99.99,WSDL version 426,2013-09-10 14:46:00,
2013-09-10 09:51:00,81.8,55.3,29.32,SSW,194,5.8,9.2,40,-99.99,,,-99.99,WSDL version 426,2013-09-10 14:51:00,
2013-09-10 09:56:00,82.2,55.3,29.32,South,188,5.5,9.2,39,-99.99,,,-99.99,WSDL version 426,2013-09-10 14:56:00,
2013-09-10 10:01:00,82.7,55.2,29.32,South,186,5.6,9.8,39,-99.99,,,-99.99,WSDL version 426,2013-09-10 15:01:00,
2013-09-10 10:06:00,83.3,55.1,29.32,South,172,5.5,10.1,38,-99.99,,,-99.99,WSDL version 426,2013-09-10 15:06:00,
2013-09-10 10:11:00,83.6,54.6,29.32,South,173,7.0,11.9,37,-99.99,,,-99.99,WSDL version 426,2013-09-10 15:11:00,
2013-09-10 10:16:00,83.8,54.2,29.32,South,174,8.6,14.1,36,-99.99,,,-99.99,WSDL version 426,2013-09-10 15:16:00,
2013-09-10 10:21:00,84.3,53.9,29.32,SW,218,6.1,14.1,35,-99.99,,,-99.99,WSDL version 426,2013-09-10 15:21:00,
2013-09-10 10:26:00,85.0,54.1,29.32,SSW,200,4.0,12.1,34,-99.99,,,-99.99,WSDL version 426,2013-09-10 15:26:00,
2013-09-10 10:31:00,85.8,54.2,29.32,SW,228,5.9,9.6,33,-99.99,,,-99.99,WSDL version 426,2013-09-10 15:31:00,
2013-09-10 10:36:00,86.4,53.6,29.32,South,180,5.8,9.6,32,-99.99,,,-99.99,WSDL version 426,2013-09-10 15:36:00,
2013-09-10 10:41:00,86.9,53.0,29.32,SW,225,6.2,9.2,31,-99.99,,,-99.99,WSDL version 426,2013-09-10 15:41:00,
2013-09-10 10:46:00,87.1,53.0,29.32,SSW,210,6.5,12.1,31,-99.99,,,-99.99,WSDL version 426,2013-09-10 15:46:00,
2013-09-10 10:51:00,87.3,52.1,29.32,South,180,6.2,12.1,30,-99.99,,,-99.99,WSDL version 426,2013-09-10 15:51:00,
2013-09-10 10:56:00,87.6,52.4,29.32,SSW,211,5.2,9.6,30,-99.99,,,-99.99,WSDL version 426,2013-09-10 15:56:00,
2013-09-10 11:01:00,87.9,52.6,29.32,SW,231,5.9,10.5,30,-99.99,,,-99.99,WSDL version 426,2013-09-10 16:01:00,
2013-09-10 11:06:00,88.1,52.4,29.32,SW,220,6.8,10.7,29,-99.99,,,-99.99,WSDL version 426,2013-09-10 16:06:00,
2013-09-10 11:11:00,87.9,51.9,29.32,SW,222,6.7,12.5,29,-99.99,,,-99.99,WSDL version 426,2013-09-10 16:11:00,
2013-09-10 11:16:00,88.2,52.6,29.32,South,170,8.4,12.5,30,-99.99,,,-99.99,WSDL version 426,2013-09-10 16:16:00,
2013-09-10 11:21:00,88.6,52.7,29.32,SW,222,6.5,11.0,29,-99.99,,,-99.99,WSDL version 426,2013-09-10 16:21:00,
2013-09-10 11:26:00,88.9,52.8,29.32,South,177,5.5,10.7,30,-99.99,,,-99.99,WSDL version 426,2013-09-10 16:26:00,
2013-09-10 11:31:00,89.5,53.1,29.32,SSE,163,7.3,12.5,29,-99.99,,,-99.99,WSDL version 426,2013-09-10 16:31:00,
2013-09-10 11:36:00,89.7,52.8,29.32,South,173,8.4,12.8,28,-99.99,,,-99.99,WSDL version 426,2013-09-10 16:36:00,
2013-09-10 11:41:00,90.0,52.8,29.32,SSE,165,8.3,14.3,28,-99.99,,,-99.99,WSDL version 426,2013-09-10 16:41:00,
2013-09-10 11:46:00,90.5,53.0,29.32,SSE,167,7.7,14.3,28,-99.99,,,-99.99,WSDL version 426,2013-09-10 16:46:00,
2013-09-10 11:51:00,90.6,53.1,29.32,SSE,163,7.2,12.3,28,-99.99,,,-99.99,WSDL version 426,2013-09-10 16:51:00,
2013-09-10 11:56:00,90.7,53.2,29.32,SSE,163,6.5,12.3,28,-99.99,,,-99.99,WSDL version 426,2013-09-10 16:56:00,
2013-09-10 12:01:00,91.1,53.5,29.32,South,169,8.0,15.2,28,-99.99,,,-99.99,WSDL version 426,2013-09-10 17:01:00,
2013-09-10 12:06:00,91.2,53.4,29.32,SSW,208,6.5,15.2,28,-99.99,,,-99.99,WSDL version 426,2013-09-10 17:06:00,
2013-09-10 12:11:00,90.7,52.5,29.32,SSW,199,6.9,13.0,28,-99.99,,,-99.99,WSDL version 426,2013-09-10 17:11:00,
2013-09-10 12:16:00,91.0,53.4,29.32,SW,218,6.2,11.0,28,-99.99,,,-99.99,WSDL version 426,2013-09-10 17:16:00,
2013-09-10 12:21:00,90.9,53.2,29.32,SSW,208,6.8,15.2,28,-99.99,,,-99.99,WSDL version 426,2013-09-10 17:21:00,
2013-09-10 12:26:00,90.9,52.5,29.32,SW,228,8.8,15.2,27,-99.99,,,-99.99,WSDL version 426,2013-09-10 17:26:00,
2013-09-10 12:31:00,91.2,52.7,29.32,SSW,203,4.8,11.2,27,-99.99,,,-99.99,WSDL version 426,2013-09-10 17:31:00,
2013-09-10 12:36:00,91.6,52.7,29.32,SSE,151,7.6,13.9,27,-99.99,,,-99.99,WSDL version 426,2013-09-10 17:36:00,
2013-09-10 12:41:00,92.3,53.0,29.32,South,173,6.3,13.9,27,-99.99,,,-99.99,WSDL version 426,2013-09-10 17:41:00,
2013-09-10 12:46:00,92.6,52.2,29.32,SSW,206,7.0,13.0,24,-99.99,,,-99.99,WSDL version 426,2013-09-10 17:46:00,
2013-09-10 12:51:00,92.3,50.8,29.32,SSE,153,7.6,13.0,26,-99.99,,,-99.99,WSDL version 426,2013-09-10 17:51:00,
2013-09-10 12:56:00,92.7,50.8,29.32,South,172,8.1,14.8,23,-99.99,,,-99.99,WSDL version 426,2013-09-10 17:56:00,
2013-09-10 13:01:00,93.0,49.6,29.32,SSE,166,9.2,14.8,23,-99.99,,,-99.99,WSDL version 426,2013-09-10 18:01:00,
2013-09-10 13:06:00,93.1,49.6,29.32,South,190,7.4,14.8,22,-99.99,,,-99.99,WSDL version 426,2013-09-10 18:06:00,
2013-09-10 13:11:00,93.1,49.9,29.32,SSW,194,6.4,13.9,23,-99.99,,,-99.99,WSDL version 426,2013-09-10 18:11:00,
2013-09-10 13:16:00,93.3,48.6,29.29,SE,141,7.2,13.0,22,-99.99,,,-99.99,WSDL version 426,2013-09-10 18:16:00,
2013-09-10 13:21:00,93.9,48.8,29.29,South,183,6.3,12.1,21,-99.99,,,-99.99,WSDL version 426,2013-09-10 18:21:00,
2013-09-10 13:26:00,94.9,49.4,29.29,South,185,5.9,10.7,21,-99.99,,,-99.99,WSDL version 426,2013-09-10 18:26:00,
2013-09-10 13:31:00,95.2,48.9,29.29,SSE,149,6.0,12.5,21,-99.99,,,-99.99,WSDL version 426,2013-09-10 18:31:00,
2013-09-10 13:36:00,95.2,47.8,29.29,SSE,155,7.1,12.5,20,-99.99,,,-99.99,WSDL version 426,2013-09-10 18:36:00,
2013-09-10 13:41:00,95.8,48.5,29.29,SE,135,8.3,13.0,20,-99.99,,,-99.99,WSDL version 426,2013-09-10 18:41:00,
2013-09-10 13:46:00,95.5,47.2,29.29,SW,225,9.3,13.2,19,-99.99,,,-99.99,WSDL version 426,2013-09-10 18:46:00,
2013-09-10 13:51:00,94.7,46.9,29.29,SSW,200,7.0,13.2,19,-99.99,,,-99.99,WSDL version 426,2013-09-10 18:51:00,
2013-09-10 13:56:00,94.7,47.0,29.29,SSW,203,5.4,14.5,20,-99.99,,,-99.99,WSDL version 426,2013-09-10 18:56:00,
2013-09-10 14:01:00,95.5,47.4,29.29,South,169,7.9,14.5,19,-99.99,,,-99.99,WSDL version 426,2013-09-10 19:01:00,
2013-09-10 14:06:00,96.5,47.0,29.29,SSE,164,7.0,13.2,19,-99.99,,,-99.99,WSDL version 426,2013-09-10 19:06:00,
2013-09-10 14:11:00,96.5,47.5,29.29,South,173,8.2,15.4,19,-99.99,,,-99.99,WSDL version 426,2013-09-10 19:11:00,
2013-09-10 14:16:00,96.3,46.7,29.29,SSE,150,6.0,15.4,19,-99.99,,,-99.99,WSDL version 426,2013-09-10 19:16:00,
2013-09-10 14:21:00,96.9,48.2,29.29,South,183,6.3,10.7,19,-99.99,,,-99.99,WSDL version 426,2013-09-10 19:21:00,
2013-09-10 14:26:00,97.8,48.3,29.29,SSE,160,5.6,10.5,19,-99.99,,,-99.99,WSDL version 426,2013-09-10 19:26:00,
2013-09-10 14:31:00,98.2,47.9,29.26,SSE,163,5.4,13.2,19,-99.99,,,-99.99,WSDL version 426,2013-09-10 19:31:00,
2013-09-10 14:36:00,97.8,45.9,29.26,South,180,9.9,13.2,17,-99.99,,,-99.99,WSDL version 426,2013-09-10 19:36:00,
2013-09-10 14:41:00,97.5,45.4,29.26,South,191,6.8,13.2,17,-99.99,,,-99.99,WSDL version 426,2013-09-10 19:41:00,
2013-09-10 14:46:00,97.7,45.0,29.26,SSW,213,6.0,15.2,16,-99.99,,,-99.99,WSDL version 426,2013-09-10 19:46:00,
2013-09-10 14:51:00,97.5,45.4,29.26,SSE,149,8.6,17.2,17,-99.99,,,-99.99,WSDL version 426,2013-09-10 19:51:00,
2013-09-10 14:56:00,98.2,46.0,29.26,SE,143,6.5,17.2,17,-99.99,,,-99.99,WSDL version 426,2013-09-10 19:56:00,
2013-09-10 15:01:00,98.7,45.4,29.26,South,178,5.3,13.2,16,-99.99,,,-99.99,WSDL version 426,2013-09-10 20:01:00,
2013-09-10 15:06:00,99.1,45.1,29.26,SE,138,7.5,13.0,16,-99.99,,,-99.99,WSDL version 426,2013-09-10 20:06:00,
2013-09-10 15:11:00,98.2,44.7,29.26,South,177,5.8,13.0,16,-99.99,,,-99.99,WSDL version 426,2013-09-10 20:11:00,
2013-09-10 15:16:00,96.7,44.4,29.26,South,183,7.0,11.0,17,-99.99,,,-99.99,WSDL version 426,2013-09-10 20:16:00,
2013-09-10 15:21:00,96.9,45.0,29.26,South,175,5.1,13.2,17,-99.99,,,-99.99,WSDL version 426,2013-09-10 20:21:00,
2013-09-10 15:26:00,97.7,45.3,29.26,SSW,196,7.3,13.2,16,-99.99,,,-99.99,WSDL version 426,2013-09-10 20:26:00,
2013-09-10 15:31:00,98.2,45.3,29.26,SE,140,6.8,10.3,16,-99.99,,,-99.99,WSDL version 426,2013-09-10 20:31:00,
2013-09-10 15:36:00,98.8,44.9,29.26,SSE,163,7.0,13.4,16,-99.99,,,-99.99,WSDL version 426,2013-09-10 20:36:00,
2013-09-10 15:41:00,99.1,45.1,29.26,SE,141,8.4,15.4,16,-99.99,,,-99.99,WSDL version 426,2013-09-10 20:41:00,
2013-09-10 15:46:00,99.9,45.8,29.26,SE,128,8.4,15.4,16,-99.99,,,-99.99,WSDL version 426,2013-09-10 20:46:00,
2013-09-10 15:51:00,100.8,44.7,29.26,South,186,6.3,15.4,15,-99.99,,,-99.99,WSDL version 426,2013-09-10 20:51:00,
2013-09-10 15:56:00,100.7,43.7,29.26,South,175,6.1,11.9,12,-99.99,,,-99.99,WSDL version 426,2013-09-10 20:56:00,
2013-09-10 16:01:00,101.2,39.2,29.26,South,174,4.8,12.5,12,-99.99,,,-99.99,WSDL version 426,2013-09-10 21:01:00,
2013-09-10 16:06:00,100.4,37.5,29.26,South,183,6.8,12.5,10,-99.99,,,-99.99,WSDL version 426,2013-09-10 21:06:00,
2013-09-10 16:11:00,99.2,32.6,29.26,South,183,8.6,12.5,11,-99.99,,,-99.99,WSDL version 426,2013-09-10 21:11:00,
2013-09-10 16:16:00,97.8,32.9,29.23,South,191,7.3,12.5,11,-99.99,,,-99.99,WSDL version 426,2013-09-10 21:16:00,
2013-09-10 16:21:00,96.7,33.6,29.23,SSW,198,5.8,14.3,11,-99.99,,,-99.99,WSDL version 426,2013-09-10 21:21:00,
2013-09-10 16:26:00,96.4,33.4,29.23,South,188,5.3,14.3,11,-99.99,,,-99.99,WSDL version 426,2013-09-10 21:26:00,
2013-09-10 16:31:00,96.5,35.5,29.23,South,190,5.2,8.5,11,-99.99,,,-99.99,WSDL version 426,2013-09-10 21:31:00,
2013-09-10 16:36:00,95.9,34.0,29.23,South,183,5.6,10.1,11,-99.99,,,-99.99,WSDL version 426,2013-09-10 21:36:00,
2013-09-10 16:41:00,95.1,38.5,29.23,South,191,6.5,12.8,14,-99.99,,,-99.99,WSDL version 426,2013-09-10 21:41:00,
2013-09-10 16:46:00,94.7,38.1,29.23,South,177,7.3,12.8,14,-99.99,,,-99.99,WSDL version 426,2013-09-10 21:46:00,
2013-09-10 16:51:00,95.0,38.4,29.23,SSE,160,3.9,10.3,14,-99.99,,,-99.99,WSDL version 426,2013-09-10 21:51:00,
2013-09-10 16:56:00,95.1,38.5,29.23,South,174,3.9,8.5,14,-99.99,,,-99.99,WSDL version 426,2013-09-10 21:56:00,
2013-09-10 17:01:00,94.5,38.0,29.23,SSE,158,5.8,8.1,14,-99.99,,,-99.99,WSDL version 426,2013-09-10 22:01:00,
2013-09-10 17:06:00,94.0,38.2,29.23,SSE,149,6.5,10.5,16,-99.99,,,-99.99,WSDL version 426,2013-09-10 22:06:00,
2013-09-10 17:11:00,94.3,41.3,29.23,South,169,5.0,10.5,16,-99.99,,,-99.99,WSDL version 426,2013-09-10 22:11:00,
2013-09-10 17:16:00,94.5,41.4,29.23,SE,143,5.7,10.3,16,-99.99,,,-99.99,WSDL version 426,2013-09-10 22:16:00,
2013-09-10 17:21:00,94.5,41.4,29.23,SSE,149,5.0,13.2,16,-99.99,,,-99.99,WSDL version 426,2013-09-10 22:21:00,
2013-09-10 17:26:00,93.9,41.0,29.23,South,188,6.0,13.2,16,-99.99,,,-99.99,WSDL version 426,2013-09-10 22:26:00,
2013-09-10 17:31:00,94.0,41.0,29.23,SSE,168,5.1,8.7,16,-99.99,,,-99.99,WSDL version 426,2013-09-10 22:31:00,
2013-09-10 17:36:00,94.4,42.0,29.23,South,180,3.2,8.1,17,-99.99,,,-99.99,WSDL version 426,2013-09-10 22:36:00,
2013-09-10 17:41:00,94.5,41.4,29.23,SSE,153,5.6,10.3,16,-99.99,,,-99.99,WSDL version 426,2013-09-10 22:41:00,
2013-09-10 17:46:00,93.9,40.9,29.23,SSE,158,3.7,10.3,16,-99.99,,,-99.99,WSDL version 426,2013-09-10 22:46:00,
2013-09-10 17:51:00,93.7,42.1,29.23,South,170,5.0,7.8,17,-99.99,,,-99.99,WSDL version 426,2013-09-10 22:51:00,
2013-09-10 17:56:00,93.1,41.8,29.23,SSE,160,3.7,7.8,17,-99.99,,,-99.99,WSDL version 426,2013-09-10 22:56:00,
2013-09-10 18:01:00,92.8,41.7,29.23,SSE,158,3.9,7.6,17,-99.99,,,-99.99,WSDL version 426,2013-09-10 23:01:00,
2013-09-10 18:06:00,92.8,41.6,29.23,SSE,168,3.0,7.6,17,-99.99,,,-99.99,WSDL version 426,2013-09-10 23:06:00,
2013-09-10 18:11:00,92.8,42.6,29.23,SE,138,4.4,7.4,18,-99.99,,,-99.99,WSDL version 426,2013-09-10 23:11:00,
2013-09-10 18:16:00,92.4,42.8,29.23,SSE,148,3.9,7.4,18,-99.99,,,-99.99,WSDL version 426,2013-09-10 23:16:00,
2013-09-10 18:21:00,91.9,42.4,29.23,South,174,3.6,6.3,18,-99.99,,,-99.99,WSDL version 426,2013-09-10 23:21:00,
2013-09-10 18:26:00,91.6,42.1,29.23,SSE,149,3.1,6.3,18,-99.99,,,-99.99,WSDL version 426,2013-09-10 23:26:00,
2013-09-10 18:31:00,91.6,42.7,29.23,SSE,153,2.7,6.3,19,-99.99,,,-99.99,WSDL version 426,2013-09-10 23:31:00,
2013-09-10 18:36:00,91.3,43.3,29.23,SSE,158,2.5,4.3,19,-99.99,,,-99.99,WSDL version 426,2013-09-10 23:36:00,
2013-09-10 18:41:00,90.9,43.4,29.23,SSE,148,1.8,4.3,20,-99.99,,,-99.99,WSDL version 426,2013-09-10 23:41:00,
2013-09-10 18:46:00,91.1,44.5,29.23,SE,138,1.2,3.4,20,-99.99,,,-99.99,WSDL version 426,2013-09-10 23:46:00,
2013-09-10 18:51:00,92.1,44.0,29.23,SE,141,1.8,3.1,19,-99.99,,,-99.99,WSDL version 426,2013-09-10 23:51:00,
2013-09-10 18:56:00,92.7,44.4,29.23,SE,143,0.6,3.1,19,-99.99,,,-99.99,WSDL version 426,2013-09-10 23:56:00,
2013-09-10 19:01:00,92.2,44.0,29.23,SE,143,1.7,2.5,19,-99.99,,,-99.99,WSDL version 426,2013-09-11 00:01:00,
2013-09-10 19:06:00,91.9,43.8,29.23,SE,132,1.4,2.5,19,-99.99,,,-99.99,WSDL version 426,2013-09-11 00:06:00,
2013-09-10 19:11:00,91.1,44.5,29.23,SSW,203,1.3,2.5,20,-99.99,,,-99.99,WSDL version 426,2013-09-11 00:11:00,
2013-09-10 19:16:00,90.8,44.9,29.23,SSW,203,1.2,2.0,21,-99.99,,,-99.99,WSDL version 426,2013-09-11 00:16:00,
2013-09-10 19:21:00,90.3,45.5,29.23,SSW,203,0.5,1.6,22,-99.99,,,-99.99,WSDL version 426,2013-09-11 00:21:00,
2013-09-10 19:26:00,89.5,46.3,29.23,South,180,0.6,2.0,23,-99.99,,,-99.99,WSDL version 426,2013-09-11 00:26:00,
2013-09-10 19:31:00,88.9,46.9,29.23,South,180,1.5,2.2,24,-99.99,,,-99.99,WSDL version 426,2013-09-11 00:31:00,
2013-09-10 19:36:00,88.2,47.1,29.23,SSE,148,1.2,2.2,25,-99.99,,,-99.99,WSDL version 426,2013-09-11 00:36:00,
2013-09-10 19:41:00,87.6,48.7,29.23,SSE,160,1.6,2.9,27,-99.99,,,-99.99,WSDL version 426,2013-09-11 00:41:00,
2013-09-10 19:46:00,87.0,50.0,29.23,SE,143,1.5,2.9,28,-99.99,,,-99.99,WSDL version 426,2013-09-11 00:46:00,
2013-09-10 19:51:00,86.4,49.4,29.23,ESE,120,1.5,2.7,28,-99.99,,,-99.99,WSDL version 426,2013-09-11 00:51:00,
2013-09-10 19:56:00,85.1,49.3,29.23,ESE,113,2.2,2.7,29,-99.99,,,-99.99,WSDL version 426,2013-09-11 00:56:00,
2013-09-10 20:01:00,84.0,49.1,29.23,ESE,113,1.8,2.7,30,-99.99,,,-99.99,WSDL version 426,2013-09-11 01:01:00,
2013-09-10 20:06:00,83.7,49.5,29.23,ESE,113,1.6,2.7,31,-99.99,,,-99.99,WSDL version 426,2013-09-11 01:06:00,
2013-09-10 20:11:00,83.6,49.8,29.23,ESE,115,1.6,2.7,31,-99.99,,,-99.99,WSDL version 426,2013-09-11 01:11:00,
2013-09-10 20:16:00,83.4,49.6,29.23,ESE,113,1.6,2.7,31,-99.99,,,-99.99,WSDL version 426,2013-09-11 01:16:00,
2013-09-10 20:21:00,83.2,49.5,29.23,ESE,123,0.5,2.7,31,-99.99,,,-99.99,WSDL version 426,2013-09-11 01:21:00,
2013-09-10 20:26:00,83.1,49.6,29.23,SE,127,1.3,2.0,32,-99.99,,,-99.99,WSDL version 426,2013-09-11 01:26:00,
2013-09-10 20:31:00,82.8,50.0,29.23,SE,135,1.3,2.5,32,-99.99,,,-99.99,WSDL version 426,2013-09-11 01:31:00,
2013-09-10 20:36:00,82.5,49.7,29.23,SE,143,1.4,2.5,32,-99.99,,,-99.99,WSDL version 426,2013-09-11 01:36:00,
2013-09-10 20:41:00,82.4,49.6,29.23,SSE,155,1.1,2.7,32,-99.99,,,-99.99,WSDL version 426,2013-09-11 01:41:00,
2013-09-10 20:46:00,82.1,50.2,29.26,South,177,0.4,2.9,33,-99.99,,,-99.99,WSDL version 426,2013-09-11 01:46:00,
2013-09-10 20:51:00,81.5,50.4,29.26,SSW,203,1.2,2.9,34,-99.99,,,-99.99,WSDL version 426,2013-09-11 01:51:00,
2013-09-10 20:56:00,80.9,49.9,29.26,SSW,203,1.2,2.2,34,-99.99,,,-99.99,WSDL version 426,2013-09-11 01:56:00,
2013-09-10 21:01:00,80.5,50.9,29.26,SSW,206,1.3,2.2,37,-99.99,,,-99.99,WSDL version 426,2013-09-11 02:01:00,
2013-09-10 21:06:00,80.0,51.9,29.26,South,186,0.0,2.0,38,-99.99,,,-99.99,WSDL version 426,2013-09-11 02:06:00,
2013-09-10 21:11:00,79.4,51.1,29.26,SSW,203,0.0,2.0,37,-99.99,,,-99.99,WSDL version 426,2013-09-11 02:11:00,
2013-09-10 21:16:00,78.8,50.7,29.26,SW,236,0.0,1.3,39,-99.99,,,-99.99,WSDL version 426,2013-09-11 02:16:00,
2013-09-10 21:21:00,78.9,52.2,29.26,NW,315,0.0,1.3,39,-99.99,,,-99.99,WSDL version 426,2013-09-11 02:21:00,
2013-09-10 21:26:00,79.2,52.7,29.26,NE,53,0.1,1.3,40,-99.99,,,-99.99,WSDL version 426,2013-09-11 02:26:00,
2013-09-10 21:31:00,79.0,51.9,29.26,ENE,68,0.0,1.3,38,-99.99,,,-99.99,WSDL version 426,2013-09-11 02:31:00,
2013-09-10 21:36:00,78.2,51.5,29.26,ENE,68,0.0,0.0,40,-99.99,,,-99.99,WSDL version 426,2013-09-11 02:36:00,
2013-09-10 21:41:00,77.7,51.6,29.26,South,185,0.4,1.6,41,-99.99,,,-99.99,WSDL version 426,2013-09-11 02:41:00,
2013-09-10 21:46:00,77.7,52.7,29.26,SSW,208,1.2,2.0,42,-99.99,,,-99.99,WSDL version 426,2013-09-11 02:46:00,
2013-09-10 21:51:00,77.7,52.6,29.26,WSW,248,0.0,2.0,41,-99.99,,,-99.99,WSDL version 426,2013-09-11 02:51:00,
2013-09-10 21:56:00,77.1,51.7,29.26,WSW,248,0.0,1.3,41,-99.99,,,-99.99,WSDL version 426,2013-09-11 02:56:00,
2013-09-10 22:01:00,76.5,51.7,29.26,WSW,245,0.0,0.0,42,-99.99,,,-99.99,WSDL version 426,2013-09-11 03:01:00,
2013-09-10 22:06:00,76.4,53.1,29.26,SSE,167,0.0,0.0,45,-99.99,,,-99.99,WSDL version 426,2013-09-11 03:06:00,
2013-09-10 22:11:00,76.6,53.5,29.26,SSW,203,0.0,0.0,44,-99.99,,,-99.99,WSDL version 426,2013-09-11 03:11:00,
2013-09-10 22:16:00,76.1,52.3,29.29,South,180,0.0,0.0,43,-99.99,,,-99.99,WSDL version 426,2013-09-11 03:16:00,
2013-09-10 22:21:00,75.5,52.1,29.29,South,180,0.0,0.0,44,-99.99,,,-99.99,WSDL version 426,2013-09-11 03:21:00,
2013-09-10 22:26:00,75.2,52.1,29.29,SE,129,0.0,0.0,46,-99.99,,,-99.99,WSDL version 426,2013-09-11 03:26:00,
2013-09-10 22:31:00,75.4,53.6,29.29,East,90,0.0,0.0,47,-99.99,,,-99.99,WSDL version 426,2013-09-11 03:31:00,
2013-09-10 22:36:00,75.6,53.4,29.29,ESE,113,0.0,0.0,45,-99.99,,,-99.99,WSDL version 426,2013-09-11 03:36:00,
2013-09-10 22:41:00,75.2,52.6,29.29,ESE,113,0.0,0.0,46,-99.99,,,-99.99,WSDL version 426,2013-09-11 03:41:00,
2013-09-10 22:46:00,74.8,52.4,29.29,ESE,113,0.0,0.0,46,-99.99,,,-99.99,WSDL version 426,2013-09-11 03:46:00,
2013-09-10 22:51:00,74.6,52.9,29.29,East,100,0.0,0.0,49,-99.99,,,-99.99,WSDL version 426,2013-09-11 03:51:00,
2013-09-10 22:56:00,74.9,54.5,29.29,NE,35,0.0,0.0,49,-99.99,,,-99.99,WSDL version 426,2013-09-11 03:56:00,
2013-09-10 23:01:00,74.8,53.7,29.29,SSW,203,0.0,0.0,47,-99.99,,,-99.99,WSDL version 426,2013-09-11 04:01:00,
2013-09-10 23:02:00,74.7,53.3,29.29,SSW,203,0.0,0.0,47,-99.99,,,-99.99,WSDL version 426,2013-09-11 04:02:00,
2013-09-10 23:07:00,74.2,53.1,29.29,SSW,203,0.0,0.0,48,-99.99,,,-99.99,WSDL version 426,2013-09-11 04:07:00,
2013-09-10 23:09:00,74.1,53.0,29.29,SSW,203,0.0,0.0,48,-99.99,,,-99.99,WSDL version 426,2013-09-11 04:09:00,
2013-09-10 23:13:00,73.9,53.4,29.29,SE,128,0.0,0.0,50,-99.99,,,-99.99,WSDL version 426,2013-09-11 04:13:00,
2013-09-10 23:18:00,74.3,54.9,29.29,SW,235,0.0,0.9,51,-99.99,,,-99.99,WSDL version 426,2013-09-11 04:18:00,
2013-09-10 23:23:00,74.2,54.2,29.29,SW,225,0.0,0.9,49,-99.99,,,-99.99,WSDL version 426,2013-09-11 04:23:00,
2013-09-10 23:28:00,73.6,53.2,29.29,SW,225,0.0,0.0,49,-99.99,,,-99.99,WSDL version 426,2013-09-11 04:28:00,
2013-09-10 23:33:00,73.3,52.9,29.29,SW,225,0.0,0.0,49,-99.99,,,-99.99,WSDL version 426,2013-09-11 04:33:00,
2013-09-10 23:38:00,73.1,54.3,29.29,SSW,203,0.0,0.0,54,-99.99,,,-99.99,WSDL version 426,2013-09-11 04:38:00,
2013-09-10 23:43:00,73.6,55.6,29.29,SSW,200,0.0,1.1,53,-99.99,,,-99.99,WSDL version 426,2013-09-11 04:43:00,
2013-09-10 23:48:00,73.6,54.4,29.29,SE,135,0.0,1.1,50,-99.99,,,-99.99,WSDL version 426,2013-09-11 04:48:00,
2013-09-10 23:53:00,73.2,54.0,29.29,SE,135,0.0,0.0,51,-99.99,,,-99.99,WSDL version 426,2013-09-11 04:53:00,
2013-09-10 23:58:00,73.0,53.8,29.29,SE,135,0.0,0.0,51,-99.99,,,-99.99,WSDL version 426,2013-09-11 04:58:00,